createdAt,value
2022-08-31T00:01:10.769Z,97.02
2022-08-31T00:04:00.368Z,97.63
2022-08-31T00:06:45.937Z,98.80
2022-08-31T00:09:37.083Z,98.41
2022-08-31T00:12:22.486Z,98.52
2022-08-31T00:15:09.576Z,98.86
2022-08-31T00:17:56.169Z,99.55
2022-08-31T00:20:41.730Z,99.61
2022-08-31T00:23:27.366Z,99.97
2022-08-31T00:26:12.855Z,100.00
2022-08-31T00:28:58.272Z,99.68
2022-08-31T00:31:43.345Z,100.00
2022-08-31T00:34:28.628Z,100.00
2022-08-31T00:37:14.208Z,100.00
2022-08-31T00:39:59.358Z,100.00
2022-08-31T00:42:44.435Z,100.00
2022-08-31T00:45:29.987Z,100.00
2022-08-31T00:48:15.484Z,100.00
2022-08-31T00:51:01.245Z,100.00
2022-08-31T00:53:48.043Z,100.00
2022-08-31T00:56:37.223Z,100.00
2022-08-31T00:59:23.293Z,100.00
2022-08-31T01:02:09.165Z,100.00
2022-08-31T01:04:54.596Z,100.00
2022-08-31T01:07:40.610Z,100.00
2022-08-31T01:10:28.713Z,100.00
2022-08-31T01:13:15.397Z,100.00
2022-08-31T01:16:03.373Z,100.00
2022-08-31T01:18:51.553Z,100.00
2022-08-31T01:22:02.827Z,100.00
2022-08-31T01:24:49.110Z,100.00
2022-08-31T01:27:36.042Z,100.00
2022-08-31T01:30:22.838Z,100.00
2022-08-31T01:33:09.188Z,100.00
2022-08-31T01:35:55.180Z,100.00
2022-08-31T01:38:40.519Z,100.00
2022-08-31T01:41:25.712Z,100.00
2022-08-31T01:44:16.174Z,100.00
2022-08-31T01:47:01.764Z,100.00
2022-08-31T01:49:46.925Z,100.00
2022-08-31T01:52:34.079Z,100.00
2022-08-31T01:55:19.363Z,100.00
2022-08-31T01:58:05.761Z,100.00
2022-08-31T02:00:51.225Z,100.00
2022-08-31T02:03:36.696Z,100.00
2022-08-31T02:06:22.110Z,100.00
2022-08-31T02:09:08.164Z,100.00
2022-08-31T02:11:53.618Z,100.00
2022-08-31T02:14:38.911Z,100.00
2022-08-31T02:17:24.484Z,100.00
2022-08-31T02:20:11.179Z,100.00
2022-08-31T02:22:56.462Z,100.00
2022-08-31T02:25:41.732Z,100.00
2022-08-31T02:28:27.271Z,100.00
2022-08-31T02:31:12.733Z,100.00
2022-08-31T02:33:58.269Z,100.00
2022-08-31T02:36:45.168Z,100.00
2022-08-31T02:39:30.281Z,100.00
2022-08-31T02:42:15.607Z,100.00
2022-08-31T02:45:04.238Z,100.00
2022-08-31T02:47:49.453Z,100.00
2022-08-31T02:50:38.140Z,100.00
2022-08-31T02:53:24.037Z,100.00
2022-08-31T02:56:09.520Z,100.00
2022-08-31T02:58:55.419Z,100.00
2022-08-31T03:01:40.875Z,100.00
2022-08-31T03:04:26.251Z,100.00
2022-08-31T03:07:11.814Z,100.00
2022-08-31T03:09:57.560Z,100.00
2022-08-31T03:12:43.144Z,100.00
2022-08-31T03:15:28.924Z,100.00
2022-08-31T03:18:14.172Z,100.00
2022-08-31T03:20:59.560Z,100.00
2022-08-31T03:23:44.824Z,100.00
2022-08-31T03:26:30.229Z,100.00
2022-08-31T03:29:15.647Z,100.00
2022-08-31T03:32:01.307Z,100.00
2022-08-31T03:34:46.709Z,100.00
2022-08-31T03:37:32.307Z,100.00
2022-08-31T03:40:17.548Z,100.00
2022-08-31T03:43:02.897Z,100.00
2022-08-31T03:45:49.500Z,100.00
2022-08-31T03:48:34.719Z,100.00
2022-08-31T03:51:20.318Z,100.00
2022-08-31T03:54:05.974Z,100.00
2022-08-31T03:56:51.430Z,100.00
2022-08-31T03:59:38.736Z,100.00
2022-08-31T04:02:24.466Z,100.00
2022-08-31T04:05:10.081Z,100.00
2022-08-31T04:07:55.680Z,100.00
2022-08-31T04:10:41.989Z,100.00
2022-08-31T04:13:30.181Z,100.00
2022-08-31T04:16:17.640Z,100.00
2022-08-31T04:19:03.879Z,100.00
2022-08-31T04:21:53.430Z,100.00
2022-08-31T04:24:38.700Z,100.00
2022-08-31T04:27:24.116Z,100.00
2022-08-31T04:30:09.929Z,100.00
2022-08-31T04:32:56.918Z,100.00
2022-08-31T04:35:42.383Z,100.00
2022-08-31T04:38:27.585Z,100.00
2022-08-31T04:41:13.943Z,100.00
2022-08-31T04:44:00.202Z,100.00
2022-08-31T04:46:45.772Z,100.00
2022-08-31T04:49:30.862Z,100.00
2022-08-31T04:52:16.346Z,100.00
2022-08-31T04:55:02.825Z,100.00
2022-08-31T04:57:47.888Z,100.00
2022-08-31T05:00:37.104Z,100.00
2022-08-31T05:03:22.947Z,100.00
2022-08-31T05:06:12.761Z,100.00
2022-08-31T05:08:59.912Z,100.00
2022-08-31T05:11:45.801Z,100.00
2022-08-31T05:14:31.128Z,100.00
2022-08-31T05:17:16.998Z,100.00
2022-08-31T05:20:02.620Z,100.00
2022-08-31T05:22:47.488Z,100.00
2022-08-31T05:25:33.264Z,100.00
2022-08-31T05:28:23.353Z,100.00
2022-08-31T05:31:08.550Z,100.00
2022-08-31T05:33:53.772Z,100.00
2022-08-31T05:36:39.876Z,100.00
2022-08-31T05:39:26.056Z,100.00
2022-08-31T05:42:15.234Z,100.00
2022-08-31T05:45:00.940Z,100.00
2022-08-31T05:47:46.296Z,100.00
2022-08-31T05:50:31.860Z,100.00
2022-08-31T05:53:17.966Z,100.00
2022-08-31T05:56:10.047Z,100.00
2022-08-31T05:58:55.735Z,100.00
2022-08-31T06:01:41.685Z,100.00
2022-08-31T06:04:27.516Z,100.00
2022-08-31T06:07:12.989Z,100.00
2022-08-31T06:09:58.384Z,100.00
2022-08-31T06:12:44.027Z,100.00
2022-08-31T06:15:29.637Z,100.00
2022-08-31T06:18:14.776Z,98.13
2022-08-31T06:21:00.778Z,96.37
2022-08-31T06:23:47.081Z,95.97
2022-08-31T06:26:34.237Z,94.30
2022-08-31T06:29:20.646Z,92.44
2022-08-31T06:32:10.931Z,91.80
2022-08-31T06:34:56.370Z,90.13
2022-08-31T06:37:41.472Z,88.63
2022-08-31T06:40:27.065Z,88.10
2022-08-31T06:43:12.300Z,86.67
2022-08-31T06:45:58.021Z,85.80
2022-08-31T06:48:43.859Z,83.42
2022-08-31T06:51:36.224Z,81.60
2022-08-31T06:54:30.250Z,81.02
2022-08-31T06:57:16.466Z,80.49
2022-08-31T07:00:02.042Z,78.89
2022-08-31T07:02:53.172Z,77.69
2022-08-31T07:05:42.571Z,77.48
2022-08-31T07:08:28.052Z,76.64
2022-08-31T07:11:15.712Z,75.53
2022-08-31T07:14:01.537Z,73.72
2022-08-31T07:16:47.503Z,73.05
2022-08-31T07:19:32.669Z,71.59
2022-08-31T07:22:18.002Z,71.65
2022-08-31T07:25:03.560Z,70.54
2022-08-31T07:27:55.444Z,69.91
2022-08-31T07:30:42.098Z,68.39
2022-08-31T07:33:27.641Z,67.29
2022-08-31T07:36:14.712Z,65.13
2022-08-31T07:39:18.978Z,62.74
2022-08-31T07:42:11.711Z,62.25
2022-08-31T07:44:58.072Z,60.67
2022-08-31T07:47:47.880Z,59.23
2022-08-31T07:50:33.152Z,58.34
2022-08-31T07:53:21.107Z,56.07
2022-08-31T07:56:07.873Z,55.47
2022-08-31T07:58:53.390Z,55.73
2022-08-31T08:01:41.190Z,56.08
2022-08-31T08:04:26.355Z,55.16
2022-08-31T08:07:12.349Z,54.66
2022-08-31T08:09:57.793Z,54.85
2022-08-31T08:12:44.303Z,57.64
2022-08-31T08:15:29.768Z,54.30
2022-08-31T08:18:15.341Z,56.79
2022-08-31T08:21:00.884Z,55.83
2022-08-31T08:23:45.987Z,58.13
2022-08-31T08:26:31.675Z,54.16
2022-08-31T08:29:18.096Z,51.70
2022-08-31T08:32:03.472Z,48.42
2022-08-31T08:34:48.920Z,47.34
2022-08-31T08:37:56.651Z,47.95
2022-08-31T08:40:42.505Z,46.29
2022-08-31T08:43:35.536Z,45.71
2022-08-31T08:46:41.314Z,48.66
2022-08-31T08:49:35.238Z,47.01
2022-08-31T08:52:20.387Z,49.06
2022-08-31T08:55:08.797Z,46.12
2022-08-31T08:57:55.952Z,43.61
2022-08-31T09:00:46.365Z,42.73
2022-08-31T09:03:44.293Z,40.69
2022-08-31T09:06:45.421Z,38.90
2022-08-31T09:09:47.041Z,40.67
2022-08-31T09:12:43.169Z,41.04
2022-08-31T09:15:37.311Z,38.83
2022-08-31T09:18:28.004Z,37.34
2022-08-31T09:21:25.231Z,37.83
2022-08-31T09:24:12.944Z,36.17
2022-08-31T09:27:11.281Z,39.62
2022-08-31T09:29:58.112Z,37.52
2022-08-31T09:32:53.693Z,42.42
2022-08-31T09:35:42.074Z,46.67
2022-08-31T09:38:31.497Z,45.86
2022-08-31T09:41:29.417Z,46.43
2022-08-31T09:44:23.981Z,43.70
2022-08-31T09:47:40.349Z,40.84
2022-08-31T09:50:27.322Z,40.20
2022-08-31T09:53:31.548Z,36.54
2022-08-31T09:56:21.832Z,35.82
2022-08-31T09:59:07.111Z,34.30
2022-08-31T10:01:54.048Z,33.89
2022-08-31T10:04:47.760Z,34.24
2022-08-31T10:07:33.202Z,34.34
2022-08-31T10:10:30.974Z,37.54
2022-08-31T10:13:21.930Z,38.09
2022-08-31T10:16:14.624Z,37.81
2022-08-31T10:19:07.488Z,35.64
2022-08-31T10:21:59.896Z,34.02
2022-08-31T10:24:47.933Z,32.61
2022-08-31T10:27:38.606Z,33.69
2022-08-31T10:30:24.052Z,31.78
2022-08-31T10:33:48.443Z,32.75
2022-08-31T10:36:37.707Z,31.14
2022-08-31T10:39:23.129Z,35.04
2022-08-31T10:42:11.827Z,33.38
2022-08-31T10:45:01.172Z,33.00
2022-08-31T10:47:49.023Z,33.85
2022-08-31T10:50:40.169Z,34.60
2022-08-31T10:53:35.935Z,32.37
2022-08-31T10:56:35.460Z,32.72
2022-08-31T10:59:33.495Z,29.66
2022-08-31T11:02:27.926Z,28.56
2022-08-31T11:05:22.853Z,25.96
2022-08-31T11:08:13.817Z,27.33
2022-08-31T11:10:59.555Z,26.80
2022-08-31T11:13:49.552Z,26.42
2022-08-31T11:16:46.754Z,27.89
2022-08-31T11:19:41.428Z,28.12
2022-08-31T11:22:37.441Z,30.00
2022-08-31T11:25:35.298Z,29.44
2022-08-31T11:28:32.031Z,28.52
2022-08-31T11:31:25.600Z,27.62
2022-08-31T11:34:16.301Z,27.73
2022-08-31T11:37:09.138Z,29.66
2022-08-31T11:39:54.385Z,34.62
2022-08-31T11:42:39.559Z,35.35
2022-08-31T11:45:31.123Z,32.93
2022-08-31T11:48:37.660Z,30.43
2022-08-31T11:51:45.345Z,26.67
2022-08-31T11:54:38.084Z,26.27
2022-08-31T11:57:25.321Z,27.17
2022-08-31T12:00:19.847Z,28.03
2022-08-31T12:03:09.420Z,27.13
2022-08-31T12:05:57.901Z,26.46
2022-08-31T12:08:52.628Z,26.44
2022-08-31T12:11:47.643Z,25.08
2022-08-31T12:14:39.249Z,25.26
2022-08-31T12:17:35.104Z,25.71
2022-08-31T12:20:23.179Z,25.89
2022-08-31T12:23:40.629Z,26.27
2022-08-31T12:26:50.582Z,26.39
2022-08-31T12:29:37.031Z,26.75
2022-08-31T12:32:27.305Z,28.09
2022-08-31T12:35:12.268Z,26.45
2022-08-31T12:38:03.157Z,25.77
2022-08-31T12:40:51.003Z,25.99
2022-08-31T12:43:38.716Z,28.59
2022-08-31T12:46:31.829Z,32.66
2022-08-31T12:49:35.320Z,35.56
2022-08-31T12:52:29.288Z,35.45
2022-08-31T12:55:28.138Z,30.54
2022-08-31T12:58:19.487Z,27.47
2022-08-31T13:01:10.435Z,27.33
2022-08-31T13:04:00.436Z,27.32
2022-08-31T13:06:48.187Z,24.61
2022-08-31T13:09:35.548Z,24.40
2022-08-31T13:12:23.051Z,24.71
2022-08-31T13:15:21.102Z,25.22
2022-08-31T13:18:26.379Z,25.74
2022-08-31T13:21:12.525Z,25.85
2022-08-31T13:24:10.502Z,24.88
2022-08-31T13:27:05.805Z,25.05
2022-08-31T13:29:53.505Z,25.91
2022-08-31T13:32:40.805Z,25.15
2022-08-31T13:35:33.592Z,26.48
2022-08-31T13:38:29.048Z,24.71
2022-08-31T13:41:17.700Z,24.43
2022-08-31T13:44:05.355Z,23.80
2022-08-31T13:47:00.085Z,23.94
2022-08-31T13:49:45.980Z,24.25
2022-08-31T13:52:31.368Z,24.67
2022-08-31T13:55:37.090Z,23.46
2022-08-31T13:58:26.102Z,24.96
2022-08-31T14:01:23.710Z,25.69
2022-08-31T14:04:34.326Z,28.49
2022-08-31T14:07:24.477Z,33.21
2022-08-31T14:10:14.914Z,36.67
2022-08-31T14:13:06.921Z,37.66
2022-08-31T14:15:54.845Z,38.31
2022-08-31T14:18:42.866Z,33.05
2022-08-31T14:21:29.920Z,29.32
2022-08-31T14:24:16.490Z,26.61
2022-08-31T14:27:02.237Z,26.21
2022-08-31T14:29:47.681Z,25.79
2022-08-31T14:32:33.241Z,24.67
2022-08-31T14:35:18.682Z,26.70
2022-08-31T14:38:04.335Z,31.23
2022-08-31T14:40:49.885Z,33.15
2022-08-31T14:43:35.535Z,35.74
2022-08-31T14:46:27.800Z,36.65
2022-08-31T14:49:12.886Z,38.78
2022-08-31T14:52:03.065Z,39.92
2022-08-31T14:54:48.500Z,40.24
2022-08-31T14:57:33.953Z,41.79
2022-08-31T15:00:23.121Z,42.00
2022-08-31T15:03:09.415Z,41.67
2022-08-31T15:05:54.963Z,42.50
2022-08-31T15:08:41.332Z,42.36
2022-08-31T15:11:26.827Z,41.55
2022-08-31T15:14:12.402Z,37.86
2022-08-31T15:17:03.230Z,33.58
2022-08-31T15:19:51.423Z,29.79
2022-08-31T15:22:40.371Z,27.62
2022-08-31T15:25:26.201Z,27.48
2022-08-31T15:28:11.454Z,27.47
2022-08-31T15:30:57.808Z,30.12
2022-08-31T15:33:49.203Z,34.97
2022-08-31T15:36:36.020Z,39.04
2022-08-31T15:39:22.596Z,41.03
2022-08-31T15:42:11.244Z,41.31
2022-08-31T15:44:57.192Z,43.07
2022-08-31T15:48:01.212Z,43.18
2022-08-31T15:50:52.589Z,43.80
2022-08-31T15:53:42.654Z,44.13
2022-08-31T15:56:29.364Z,44.35
2022-08-31T15:59:14.779Z,44.77
2022-08-31T16:02:01.279Z,45.31
2022-08-31T16:04:48.250Z,46.23
2022-08-31T16:07:34.852Z,45.64
2022-08-31T16:10:20.551Z,45.08
2022-08-31T16:13:07.182Z,45.46
2022-08-31T16:15:53.147Z,45.39
2022-08-31T16:18:38.348Z,45.68
2022-08-31T16:21:25.453Z,44.76
2022-08-31T16:24:14.100Z,45.93
2022-08-31T16:27:00.534Z,45.46
2022-08-31T16:29:46.404Z,46.01
2022-08-31T16:32:31.766Z,46.95
2022-08-31T16:35:17.311Z,46.65
2022-08-31T16:38:03.043Z,46.33
2022-08-31T16:40:48.881Z,47.97
2022-08-31T16:43:34.195Z,48.76
2022-08-31T16:46:40.100Z,49.16
2022-08-31T16:49:33.712Z,49.68
2022-08-31T16:52:21.455Z,49.55
2022-08-31T16:55:07.106Z,49.68
2022-08-31T16:57:52.328Z,49.41
2022-08-31T17:00:38.077Z,49.64
2022-08-31T17:03:23.689Z,51.06
2022-08-31T17:06:09.192Z,50.89
2022-08-31T17:08:59.146Z,51.00
2022-08-31T17:11:49.184Z,51.02
2022-08-31T17:14:36.138Z,51.39
2022-08-31T17:17:22.947Z,51.35
2022-08-31T17:20:08.804Z,51.59
2022-08-31T17:22:54.459Z,52.29
2022-08-31T17:25:39.999Z,52.58
2022-08-31T17:28:26.094Z,52.92
2022-08-31T17:31:11.718Z,53.53
2022-08-31T17:33:58.258Z,54.03
2022-08-31T17:36:45.893Z,54.30
2022-08-31T17:39:31.049Z,54.45
2022-08-31T17:42:19.823Z,54.83
2022-08-31T17:45:06.358Z,55.92
2022-08-31T17:47:54.856Z,55.90
2022-08-31T17:50:43.542Z,56.56
2022-08-31T17:53:29.179Z,56.92
2022-08-31T17:56:15.663Z,57.32
2022-08-31T17:59:01.291Z,57.27
2022-08-31T18:01:47.724Z,58.25
2022-08-31T18:04:34.845Z,59.73
2022-08-31T18:07:20.274Z,59.58
2022-08-31T18:10:05.522Z,59.90
2022-08-31T18:12:51.045Z,60.92
2022-08-31T18:15:36.239Z,61.02
2022-08-31T18:18:21.913Z,61.44
2022-08-31T18:21:07.731Z,62.36
2022-08-31T18:23:53.202Z,62.98
2022-08-31T18:26:40.166Z,63.13
2022-08-31T18:29:26.725Z,62.83
2022-08-31T18:32:12.612Z,63.29
2022-08-31T18:34:58.129Z,63.53
2022-08-31T18:37:44.740Z,63.70
2022-08-31T18:40:49.019Z,64.18
2022-08-31T18:43:53.291Z,64.60
2022-08-31T18:46:45.061Z,65.14
2022-08-31T18:49:34.837Z,65.51
2022-08-31T18:52:22.917Z,66.05
2022-08-31T18:55:08.455Z,66.80
2022-08-31T18:57:54.163Z,66.75
2022-08-31T19:00:40.374Z,67.87
2022-08-31T19:03:27.780Z,67.49
2022-08-31T19:06:23.536Z,67.74
2022-08-31T19:09:09.977Z,68.18
2022-08-31T19:12:02.353Z,68.55
2022-08-31T19:14:50.419Z,68.61
2022-08-31T19:17:36.261Z,69.52
2022-08-31T19:20:21.986Z,70.10
2022-08-31T19:23:08.286Z,70.54
2022-08-31T19:25:54.842Z,71.10
2022-08-31T19:28:41.327Z,71.02
2022-08-31T19:31:27.978Z,71.65
2022-08-31T19:34:15.980Z,71.32
2022-08-31T19:37:02.017Z,71.69
2022-08-31T19:39:47.850Z,72.07
2022-08-31T19:42:59.477Z,72.31
2022-08-31T19:45:43.289Z,72.51
2022-08-31T19:48:33.101Z,72.79
2022-08-31T19:51:29.808Z,73.11
2022-08-31T19:54:16.436Z,72.93
2022-08-31T19:57:03.705Z,73.12
2022-08-31T19:59:49.990Z,73.91
2022-08-31T20:02:36.360Z,74.39
2022-08-31T20:05:22.283Z,75.13
2022-08-31T20:08:08.598Z,75.70
2022-08-31T20:10:53.868Z,75.79
2022-08-31T20:13:40.523Z,76.25
2022-08-31T20:16:33.240Z,76.38
2022-08-31T20:19:24.828Z,76.83
2022-08-31T20:22:10.777Z,77.31
2022-08-31T20:24:58.298Z,77.49
2022-08-31T20:27:44.783Z,78.26
2022-08-31T20:30:38.945Z,78.67
2022-08-31T20:33:26.018Z,79.38
2022-08-31T20:36:18.856Z,79.33
2022-08-31T20:39:07.797Z,79.66
2022-08-31T20:41:54.510Z,79.64
2022-08-31T20:44:39.881Z,80.02
2022-08-31T20:47:43.882Z,80.40
2022-08-31T20:50:29.650Z,81.84
2022-08-31T20:53:15.322Z,82.96
2022-08-31T20:56:05.961Z,83.40
2022-08-31T20:58:51.516Z,83.17
2022-08-31T21:01:37.588Z,83.02
2022-08-31T21:04:23.136Z,83.48
2022-08-31T21:07:11.821Z,83.02
2022-08-31T21:09:58.604Z,83.70
2022-08-31T21:12:43.975Z,86.24
2022-08-31T21:15:29.572Z,88.25
2022-08-31T21:18:17.269Z,89.04
2022-08-31T21:21:05.472Z,90.91
2022-08-31T21:23:50.943Z,91.14
2022-08-31T21:26:39.565Z,92.11
2022-08-31T21:29:25.283Z,94.84
2022-08-31T21:32:10.509Z,95.97
2022-08-31T21:34:56.645Z,96.81
2022-08-31T21:37:42.202Z,97.26
2022-08-31T21:40:29.393Z,97.68
2022-08-31T21:43:14.906Z,98.08
2022-08-31T21:46:01.694Z,97.48
2022-08-31T21:48:47.235Z,98.05
2022-08-31T21:51:34.461Z,98.93
2022-08-31T21:54:21.337Z,98.98
2022-08-31T21:57:06.604Z,99.14
2022-08-31T21:59:52.220Z,99.72
2022-08-31T22:02:37.653Z,100.00
2022-08-31T22:05:22.852Z,100.00
2022-08-31T22:08:08.272Z,99.96
2022-08-31T22:10:54.861Z,100.00
2022-08-31T22:13:41.041Z,100.00
2022-08-31T22:16:26.986Z,100.00
2022-08-31T22:19:13.822Z,100.00
2022-08-31T22:21:59.496Z,100.00
2022-08-31T22:24:45.283Z,100.00
2022-08-31T22:27:30.607Z,100.00
2022-08-31T22:30:16.302Z,100.00
2022-08-31T22:33:02.259Z,100.00
2022-08-31T22:35:47.721Z,100.00
2022-08-31T22:38:34.694Z,100.00
2022-08-31T22:41:20.032Z,100.00
2022-08-31T22:44:06.373Z,100.00
2022-08-31T22:46:52.075Z,100.00
2022-08-31T22:49:37.512Z,100.00
2022-08-31T22:52:22.631Z,100.00
2022-08-31T22:55:08.988Z,100.00
2022-08-31T22:57:54.508Z,100.00
2022-08-31T23:00:39.932Z,100.00
2022-08-31T23:03:27.081Z,100.00
2022-08-31T23:06:12.535Z,100.00
2022-08-31T23:08:58.265Z,100.00
2022-08-31T23:11:43.386Z,100.00
2022-08-31T23:14:29.328Z,100.00
2022-08-31T23:17:16.686Z,100.00
2022-08-31T23:20:05.080Z,100.00
2022-08-31T23:22:51.705Z,100.00
2022-08-31T23:25:38.638Z,100.00
2022-08-31T23:28:23.813Z,100.00
2022-08-31T23:31:09.451Z,100.00
2022-08-31T23:33:54.833Z,100.00
2022-08-31T23:36:41.566Z,100.00
2022-08-31T23:39:27.162Z,100.00
2022-08-31T23:42:13.778Z,100.00
2022-08-31T23:44:59.649Z,100.00
2022-08-31T23:47:44.824Z,100.00
2022-08-31T23:50:30.467Z,100.00
2022-08-31T23:53:17.265Z,100.00
2022-08-31T23:56:08.920Z,100.00
2022-08-31T23:58:54.151Z,100.00
